Time,TemperatureF,DewpointF,PressureIn,WindDirection,WindDirectionDegrees,WindSpeedMPH,WindSpeedGustMPH,Humidity,HourlyPrecipIn,Conditions,Clouds,dailyrainin,SolarRadiationWatts/m^2,SoftwareType,DateUTC
2013-06-09 00:02:00,54.0,49.0,-100.00,SSW,195,1.0,2.0,84,0.00,,,0.00,0.000000,,2013-06-09 08:02:00,
2013-06-09 00:12:00,54.0,49.0,-100.00,SSW,195,1.0,2.0,84,0.00,,,0.00,0.000000,,2013-06-09 08:12:00,
2013-06-09 00:22:00,54.0,49.0,-100.00,SSW,195,1.0,2.0,84,0.00,,,0.00,0.000000,,2013-06-09 08:22:00,
2013-06-09 00:42:00,50.0,49.0,-100.00,SSE,159,1.0,3.0,97,0.01,,,0.01,0.000000,,2013-06-09 08:42:00,
2013-06-09 00:53:00,50.0,49.0,-100.00,SSE,159,1.0,3.0,97,0.01,,,0.01,0.000000,,2013-06-09 08:53:00,
2013-06-09 01:02:00,50.0,49.0,-100.00,SSE,159,1.0,3.0,97,0.01,,,0.01,0.000000,,2013-06-09 09:02:00,
2013-06-09 01:12:00,50.0,49.0,-100.00,SSE,159,1.0,3.0,97,0.01,,,0.01,0.000000,,2013-06-09 09:12:00,
2013-06-09 01:21:00,50.0,49.0,-100.00,SSE,159,1.0,3.0,97,0.01,,,0.01,0.000000,,2013-06-09 09:21:00,
2013-06-09 01:43:00,50.0,49.0,-100.00,SSE,155,2.0,3.0,98,0.01,,,0.02,0.000000,,2013-06-09 09:43:00,
2013-06-09 01:52:00,50.0,49.0,-100.00,SSE,155,2.0,3.0,98,0.01,,,0.02,0.000000,,2013-06-09 09:52:00,
2013-06-09 02:03:00,50.0,49.0,-100.00,SSE,155,2.0,3.0,98,0.01,,,0.02,0.000000,,2013-06-09 10:03:00,
2013-06-09 02:12:00,50.0,49.0,-100.00,SSE,155,2.0,3.0,98,0.01,,,0.02,0.000000,,2013-06-09 10:12:00,
2013-06-09 02:22:00,50.0,49.0,-100.00,SSE,155,2.0,3.0,98,0.01,,,0.02,0.000000,,2013-06-09 10:22:00,
2013-06-09 02:43:00,48.0,48.0,-100.00,SSE,155,1.0,2.0,99,-99.99,,,0.00,0.000000,,2013-06-09 10:43:00,
2013-06-09 02:52:00,48.0,48.0,-100.00,SSE,155,1.0,2.0,99,-99.99,,,0.00,0.000000,,2013-06-09 10:52:00,
2013-06-09 03:02:00,48.0,48.0,-100.00,SSE,155,1.0,2.0,99,-99.99,,,0.00,0.000000,,2013-06-09 11:02:00,
2013-06-09 03:12:00,48.0,48.0,-100.00,SSE,155,1.0,2.0,99,-99.99,,,0.00,0.000000,,2013-06-09 11:12:00,
2013-06-09 03:22:00,48.0,48.0,-100.00,SSE,155,1.0,2.0,99,-99.99,,,0.00,0.000000,,2013-06-09 11:22:00,
2013-06-09 03:42:00,48.0,48.0,-100.00,SSE,154,1.0,3.0,99,0.00,,,0.00,0.000000,,2013-06-09 11:42:00,
2013-06-09 03:52:00,48.0,48.0,-100.00,SSE,154,1.0,3.0,99,0.00,,,0.00,0.000000,,2013-06-09 11:52:00,
2013-06-09 04:02:00,48.0,48.0,-100.00,SSE,154,1.0,3.0,99,0.00,,,0.00,0.000000,,2013-06-09 12:02:00,
2013-06-09 04:12:00,48.0,48.0,-100.00,SSE,154,1.0,3.0,99,0.00,,,0.00,0.000000,,2013-06-09 12:12:00,
2013-06-09 04:22:00,48.0,48.0,-100.00,SSE,154,1.0,3.0,99,0.00,,,0.00,0.000000,,2013-06-09 12:22:00,
2013-06-09 04:42:00,48.0,48.0,-100.00,SSW,198,0.0,1.0,100,0.00,,,0.00,1.000000,,2013-06-09 12:42:00,
2013-06-09 04:52:00,48.0,48.0,-100.00,SSW,198,0.0,1.0,100,0.00,,,0.00,1.000000,,2013-06-09 12:52:00,
2013-06-09 05:02:00,48.0,48.0,-100.00,SSW,198,0.0,1.0,100,0.00,,,0.00,1.000000,,2013-06-09 13:02:00,
2013-06-09 05:12:00,48.0,48.0,-100.00,SSW,198,0.0,1.0,100,0.00,,,0.00,1.000000,,2013-06-09 13:12:00,
2013-06-09 05:22:00,48.0,48.0,-100.00,SSW,198,0.0,1.0,100,0.00,,,0.00,1.000000,,2013-06-09 13:22:00,
2013-06-09 05:42:00,46.0,46.0,-100.00,South,174,0.0,2.0,100,0.00,,,0.00,21.000000,,2013-06-09 13:42:00,
2013-06-09 05:52:00,46.0,46.0,-100.00,South,174,0.0,2.0,100,0.00,,,0.00,21.000000,,2013-06-09 13:52:00,
2013-06-09 06:02:00,46.0,46.0,-100.00,South,174,0.0,2.0,100,0.00,,,0.00,21.000000,,2013-06-09 14:02:00,
2013-06-09 06:12:00,46.0,46.0,-100.00,South,174,0.0,2.0,100,0.00,,,0.00,21.000000,,2013-06-09 14:12:00,
2013-06-09 06:22:00,46.0,46.0,-100.00,South,174,0.0,2.0,100,0.00,,,0.00,21.000000,,2013-06-09 14:22:00,
2013-06-09 06:43:00,46.0,46.0,-100.00,South,178,0.0,2.0,100,0.00,,,0.00,37.000000,,2013-06-09 14:43:00,
2013-06-09 06:52:00,46.0,46.0,-100.00,South,178,0.0,2.0,100,0.00,,,0.00,37.000000,,2013-06-09 14:52:00,
2013-06-09 07:02:00,46.0,46.0,-100.00,South,178,0.0,2.0,100,0.00,,,0.00,37.000000,,2013-06-09 15:02:00,
2013-06-09 07:12:00,46.0,46.0,-100.00,South,178,0.0,2.0,100,0.00,,,0.00,37.000000,,2013-06-09 15:12:00,
2013-06-09 07:21:00,46.0,46.0,-100.00,South,178,0.0,2.0,100,0.00,,,0.00,37.000000,,2013-06-09 15:21:00,
2013-06-09 07:43:00,48.0,48.0,-100.00,SSE,164,1.0,3.0,99,0.00,,,0.00,91.000000,,2013-06-09 15:43:00,
2013-06-09 07:53:00,48.0,48.0,-100.00,SSE,164,1.0,3.0,99,0.00,,,0.00,91.000000,,2013-06-09 15:53:00,
2013-06-09 08:03:00,48.0,48.0,-100.00,SSE,164,1.0,3.0,99,0.00,,,0.00,91.000000,,2013-06-09 16:03:00,
2013-06-09 08:13:00,48.0,48.0,-100.00,SSE,164,1.0,3.0,99,0.00,,,0.00,91.000000,,2013-06-09 16:13:00,
2013-06-09 08:23:00,48.0,48.0,-100.00,SSE,164,1.0,3.0,99,0.00,,,0.00,91.000000,,2013-06-09 16:23:00,
2013-06-09 08:42:00,50.0,47.0,-100.00,SSE,165,2.0,3.0,90,0.00,,,0.00,176.000000,,2013-06-09 16:42:00,
2013-06-09 08:53:00,50.0,47.0,-100.00,SSE,165,2.0,3.0,90,0.00,,,0.00,176.000000,,2013-06-09 16:53:00,
2013-06-09 09:02:00,50.0,47.0,-100.00,SSE,165,2.0,3.0,90,0.00,,,0.00,176.000000,,2013-06-09 17:02:00,
2013-06-09 09:12:00,50.0,47.0,-100.00,SSE,165,2.0,3.0,90,0.00,,,0.00,176.000000,,2013-06-09 17:12:00,
2013-06-09 09:22:00,50.0,47.0,-100.00,SSE,165,2.0,3.0,90,0.00,,,0.00,176.000000,,2013-06-09 17:22:00,
2013-06-09 09:42:00,54.0,46.0,-100.00,SSE,164,3.0,5.0,74,0.00,,,0.00,498.000000,,2013-06-09 17:42:00,
2013-06-09 09:52:00,54.0,46.0,-100.00,SSE,164,3.0,5.0,74,0.00,,,0.00,498.000000,,2013-06-09 17:52:00,
2013-06-09 10:02:00,54.0,46.0,-100.00,SSE,164,3.0,5.0,74,0.00,,,0.00,498.000000,,2013-06-09 18:02:00,
2013-06-09 10:12:00,54.0,46.0,-100.00,SSE,164,3.0,5.0,74,0.00,,,0.00,498.000000,,2013-06-09 18:12:00,
2013-06-09 10:21:00,54.0,46.0,-100.00,SSE,164,3.0,5.0,74,0.00,,,0.00,498.000000,,2013-06-09 18:21:00,
2013-06-09 10:42:00,59.0,46.0,-100.00,South,191,2.0,4.0,61,0.00,,,0.00,486.000000,,2013-06-09 18:42:00,
2013-06-09 10:52:00,59.0,46.0,-100.00,South,191,2.0,4.0,61,0.00,,,0.00,486.000000,,2013-06-09 18:52:00,
2013-06-09 11:02:00,59.0,46.0,-100.00,South,191,2.0,4.0,61,0.00,,,0.00,486.000000,,2013-06-09 19:02:00,
2013-06-09 11:12:00,59.0,46.0,-100.00,South,191,2.0,4.0,61,0.00,,,0.00,486.000000,,2013-06-09 19:12:00,
2013-06-09 11:21:00,59.0,46.0,-100.00,South,191,2.0,4.0,61,0.00,,,0.00,486.000000,,2013-06-09 19:21:00,
2013-06-09 11:43:00,61.0,50.0,-100.00,WNW,294,2.0,5.0,67,0.00,,,0.00,618.000000,,2013-06-09 19:43:00,
2013-06-09 11:52:00,61.0,50.0,-100.00,WNW,294,2.0,5.0,67,0.00,,,0.00,618.000000,,2013-06-09 19:52:00,
2013-06-09 12:02:00,61.0,50.0,-100.00,WNW,294,2.0,5.0,67,0.00,,,0.00,618.000000,,2013-06-09 20:02:00,
2013-06-09 12:12:00,61.0,50.0,-100.00,WNW,294,2.0,5.0,67,0.00,,,0.00,618.000000,,2013-06-09 20:12:00,
2013-06-09 12:22:00,61.0,50.0,-100.00,WNW,294,2.0,5.0,67,0.00,,,0.00,618.000000,,2013-06-09 20:22:00,
2013-06-09 12:42:00,61.0,46.0,-100.00,NNW,338,2.0,5.0,59,0.00,,,0.00,682.000000,,2013-06-09 20:42:00,
2013-06-09 12:52:00,61.0,46.0,-100.00,NNW,338,2.0,5.0,59,0.00,,,0.00,682.000000,,2013-06-09 20:52:00,
2013-06-09 13:02:00,61.0,46.0,-100.00,NNW,338,2.0,5.0,59,0.00,,,0.00,682.000000,,2013-06-09 21:02:00,
2013-06-09 13:12:00,61.0,46.0,-100.00,NNW,338,2.0,5.0,59,0.00,,,0.00,682.000000,,2013-06-09 21:12:00,
2013-06-09 13:21:00,61.0,46.0,-100.00,NNW,338,2.0,5.0,59,0.00,,,0.00,682.000000,,2013-06-09 21:21:00,
2013-06-09 13:44:00,63.0,47.0,-100.00,North,358,2.0,4.0,56,0.00,,,0.00,701.000000,,2013-06-09 21:44:00,
2013-06-09 13:53:00,63.0,47.0,-100.00,North,358,2.0,4.0,56,0.00,,,0.00,701.000000,,2013-06-09 21:53:00,
2013-06-09 14:02:00,63.0,47.0,-100.00,North,358,2.0,4.0,56,0.00,,,0.00,701.000000,,2013-06-09 22:02:00,
2013-06-09 14:12:00,63.0,47.0,-100.00,North,358,2.0,4.0,56,0.00,,,0.00,701.000000,,2013-06-09 22:12:00,
2013-06-09 14:22:00,63.0,47.0,-100.00,North,358,2.0,4.0,56,0.00,,,0.00,701.000000,,2013-06-09 22:22:00,
2013-06-09 14:42:00,64.0,47.0,-100.00,North,2,2.0,4.0,54,0.00,,,0.00,720.000000,,2013-06-09 22:42:00,
2013-06-09 14:52:00,64.0,47.0,-100.00,North,2,2.0,4.0,54,0.00,,,0.00,720.000000,,2013-06-09 22:52:00,
2013-06-09 15:02:00,64.0,47.0,-100.00,North,2,2.0,4.0,54,0.00,,,0.00,720.000000,,2013-06-09 23:02:00,
2013-06-09 15:12:00,64.0,47.0,-100.00,North,2,2.0,4.0,54,0.00,,,0.00,720.000000,,2013-06-09 23:12:00,
2013-06-09 15:22:00,64.0,47.0,-100.00,North,2,2.0,4.0,54,0.00,,,0.00,720.000000,,2013-06-09 23:22:00,
2013-06-09 15:43:00,64.0,50.0,-100.00,NNW,346,2.0,5.0,59,0.00,,,0.00,443.000000,,2013-06-09 23:43:00,
2013-06-09 15:52:00,64.0,50.0,-100.00,NNW,346,2.0,5.0,59,0.00,,,0.00,443.000000,,2013-06-09 23:52:00,
2013-06-09 16:02:00,64.0,50.0,-100.00,NNW,346,2.0,5.0,59,0.00,,,0.00,443.000000,,2013-06-10 00:02:00,
2013-06-09 16:12:00,64.0,50.0,-100.00,NNW,346,2.0,5.0,59,0.00,,,0.00,443.000000,,2013-06-10 00:12:00,
2013-06-09 16:21:00,64.0,50.0,-100.00,NNW,346,2.0,5.0,59,0.00,,,0.00,443.000000,,2013-06-10 00:21:00,
2013-06-09 16:42:00,64.0,48.0,-100.00,North,0,3.0,5.0,55,0.00,,,0.00,267.000000,,2013-06-10 00:42:00,
2013-06-09 16:52:00,64.0,48.0,-100.00,North,0,3.0,5.0,55,0.00,,,0.00,267.000000,,2013-06-10 00:52:00,
2013-06-09 17:02:00,64.0,48.0,-100.00,North,0,3.0,5.0,55,0.00,,,0.00,267.000000,,2013-06-10 01:02:00,
2013-06-09 17:12:00,64.0,48.0,-100.00,North,0,3.0,5.0,55,0.00,,,0.00,267.000000,,2013-06-10 01:12:00,
2013-06-09 17:22:00,64.0,48.0,-100.00,North,0,3.0,5.0,55,0.00,,,0.00,267.000000,,2013-06-10 01:22:00,
2013-06-09 17:43:00,64.0,48.0,-100.00,North,2,3.0,7.0,56,0.00,,,0.00,594.000000,,2013-06-10 01:43:00,
2013-06-09 17:52:00,64.0,48.0,-100.00,North,2,3.0,7.0,56,0.00,,,0.00,594.000000,,2013-06-10 01:52:00,
2013-06-09 18:02:00,64.0,48.0,-100.00,North,2,3.0,7.0,56,0.00,,,0.00,594.000000,,2013-06-10 02:02:00,
2013-06-09 18:12:00,64.0,48.0,-100.00,North,2,3.0,7.0,56,0.00,,,0.00,594.000000,,2013-06-10 02:12:00,
2013-06-09 18:22:00,64.0,48.0,-100.00,North,2,3.0,7.0,56,0.00,,,0.00,594.000000,,2013-06-10 02:22:00,
2013-06-09 18:42:00,64.0,49.0,-100.00,North,6,4.0,8.0,57,0.00,,,0.00,466.000000,,2013-06-10 02:42:00,
2013-06-09 18:52:00,64.0,49.0,-100.00,North,6,4.0,8.0,57,0.00,,,0.00,466.000000,,2013-06-10 02:52:00,
2013-06-09 19:02:00,64.0,49.0,-100.00,North,6,4.0,8.0,57,0.00,,,0.00,466.000000,,2013-06-10 03:02:00,
2013-06-09 19:12:00,64.0,49.0,-100.00,North,6,4.0,8.0,57,0.00,,,0.00,466.000000,,2013-06-10 03:12:00,
2013-06-09 19:21:00,64.0,49.0,-100.00,North,6,4.0,8.0,57,0.00,,,0.00,466.000000,,2013-06-10 03:21:00,
2013-06-09 19:43:00,64.0,47.0,-100.00,North,6,2.0,5.0,53,0.00,,,0.00,262.000000,,2013-06-10 03:43:00,
2013-06-09 19:53:00,64.0,47.0,-100.00,North,6,2.0,5.0,53,0.00,,,0.00,262.000000,,2013-06-10 03:53:00,
2013-06-09 20:03:00,64.0,47.0,-100.00,North,6,2.0,5.0,53,0.00,,,0.00,262.000000,,2013-06-10 04:03:00,
2013-06-09 20:12:00,64.0,47.0,-100.00,North,6,2.0,5.0,53,0.00,,,0.00,262.000000,,2013-06-10 04:12:00,
2013-06-09 20:23:00,64.0,47.0,-100.00,North,6,2.0,5.0,53,0.00,,,0.00,262.000000,,2013-06-10 04:23:00,
2013-06-09 20:42:00,64.0,48.0,-100.00,ESE,110,1.0,3.0,56,0.00,,,0.00,168.000000,,2013-06-10 04:42:00,
2013-06-09 20:52:00,64.0,48.0,-100.00,ESE,110,1.0,3.0,56,0.00,,,0.00,168.000000,,2013-06-10 04:52:00,
2013-06-09 21:02:00,64.0,48.0,-100.00,ESE,110,1.0,3.0,56,0.00,,,0.00,168.000000,,2013-06-10 05:02:00,
2013-06-09 21:12:00,64.0,48.0,-100.00,ESE,110,1.0,3.0,56,0.00,,,0.00,168.000000,,2013-06-10 05:12:00,
2013-06-09 21:22:00,64.0,48.0,-100.00,ESE,110,1.0,3.0,56,0.00,,,0.00,168.000000,,2013-06-10 05:22:00,
2013-06-09 21:42:00,63.0,53.0,-100.00,SSE,157,0.0,1.0,70,0.00,,,0.00,89.000000,,2013-06-10 05:42:00,
2013-06-09 21:52:00,63.0,53.0,-100.00,SSE,157,0.0,1.0,70,0.00,,,0.00,89.000000,,2013-06-10 05:52:00,
2013-06-09 22:02:00,63.0,53.0,-100.00,SSE,157,0.0,1.0,70,0.00,,,0.00,89.000000,,2013-06-10 06:02:00,
2013-06-09 22:12:00,63.0,53.0,-100.00,SSE,157,0.0,1.0,70,0.00,,,0.00,89.000000,,2013-06-10 06:12:00,
2013-06-09 22:22:00,63.0,53.0,-100.00,SSE,157,0.0,1.0,70,0.00,,,0.00,89.000000,,2013-06-10 06:22:00,
2013-06-09 22:42:00,59.0,52.0,-100.00,SW,228,0.0,1.0,79,0.00,,,0.00,23.000000,,2013-06-10 06:42:00,
2013-06-09 22:53:00,59.0,52.0,-100.00,SW,228,0.0,1.0,79,0.00,,,0.00,23.000000,,2013-06-10 06:53:00,
2013-06-09 23:02:00,59.0,52.0,-100.00,SW,228,0.0,1.0,79,0.00,,,0.00,23.000000,,2013-06-10 07:02:00,
2013-06-09 23:12:00,59.0,52.0,-100.00,SW,228,0.0,1.0,79,0.00,,,0.00,23.000000,,2013-06-10 07:12:00,
2013-06-09 23:21:00,59.0,52.0,-100.00,SW,228,0.0,1.0,79,0.00,,,0.00,23.000000,,2013-06-10 07:21:00,
2013-06-09 23:42:00,54.0,50.0,-100.00,South,181,0.0,2.0,86,0.00,,,0.00,2.000000,,2013-06-10 07:42:00,
2013-06-09 23:52:00,54.0,50.0,-100.00,South,181,0.0,2.0,86,0.00,,,0.00,2.000000,,2013-06-10 07:52:00,